createdAt,value
2023-03-16T00:00:17.739Z,100138.28
2023-03-16T00:02:44.689Z,100146.94
2023-03-16T00:05:13.467Z,100141.03
2023-03-16T00:07:42.252Z,100135.97
2023-03-16T00:10:12.343Z,100134.84
2023-03-16T00:12:39.608Z,100138.47
2023-03-16T00:15:06.997Z,100119.81
2023-03-16T00:17:34.887Z,100139.41
2023-03-16T00:20:06.616Z,100127.44
2023-03-16T00:22:33.966Z,100145.00
2023-03-16T00:25:00.364Z,100144.63
2023-03-16T00:27:27.048Z,100140.34
2023-03-16T00:29:57.247Z,100136.16
2023-03-16T00:32:32.743Z,100146.59
2023-03-16T00:35:00.076Z,100141.97
2023-03-16T00:37:26.876Z,100141.16
2023-03-16T00:39:56.221Z,100129.38
2023-03-16T00:42:27.906Z,100136.28
2023-03-16T00:44:57.788Z,100128.59
2023-03-16T00:47:26.264Z,100141.31
2023-03-16T00:49:53.057Z,100136.78
2023-03-16T00:52:20.470Z,100142.63
2023-03-16T00:54:48.128Z,100129.03
2023-03-16T00:57:18.904Z,100141.22
2023-03-16T00:59:46.313Z,100118.66
2023-03-16T07:14:07.127Z,100011.66
2023-03-16T07:16:33.943Z,100017.00
2023-03-16T07:19:00.562Z,100015.19
2023-03-16T07:21:27.100Z,100015.84
2023-03-16T07:23:55.791Z,100016.50
2023-03-16T07:26:23.042Z,100021.75
2023-03-16T07:28:49.713Z,100018.50
2023-03-16T07:31:16.391Z,100017.66
2023-03-16T07:33:42.977Z,100016.78
2023-03-16T07:36:10.725Z,100017.28
2023-03-16T07:38:37.413Z,100017.00
2023-03-16T07:41:03.998Z,100023.00
2023-03-16T07:43:30.646Z,100011.25
2023-03-16T07:45:57.247Z,100017.09
2023-03-16T07:48:23.820Z,100002.03
2023-03-16T07:50:50.780Z,100019.28
2023-03-16T07:53:17.644Z,100013.38
2023-03-16T07:55:44.340Z,100017.63
2023-03-16T07:58:11.534Z,100001.72
2023-03-16T08:00:39.036Z,100017.22
2023-03-16T08:03:06.042Z,100006.16
2023-03-16T08:05:32.664Z,100016.19
2023-03-16T08:07:59.356Z,100010.25
2023-03-16T08:10:25.855Z,99999.06
2023-03-16T08:12:52.401Z,100007.22
2023-03-16T08:15:19.461Z,100001.66
2023-03-16T08:17:46.585Z,99996.28
2023-03-16T08:20:15.056Z,99994.09
2023-03-16T08:22:46.490Z,99990.81
2023-03-16T08:25:15.370Z,99997.63
2023-03-16T08:27:43.208Z,100001.84
2023-03-16T08:30:11.835Z,99991.00
2023-03-16T08:32:41.995Z,99990.44
2023-03-16T08:35:11.131Z,99985.91
2023-03-16T08:37:37.693Z,99984.50
2023-03-16T08:40:06.580Z,99978.38
2023-03-16T08:42:33.410Z,99967.84
2023-03-16T08:45:01.075Z,99957.66
2023-03-16T08:47:27.702Z,99951.63
2023-03-16T08:49:54.445Z,99962.00
2023-03-16T08:52:23.113Z,99950.25
2023-03-16T08:57:40.353Z,99964.97
2023-03-16T09:00:14.595Z,99958.50
2023-03-16T09:02:42.340Z,99959.09
2023-03-16T09:05:11.158Z,99966.09
2023-03-16T09:07:39.301Z,99958.94
2023-03-16T09:10:07.748Z,99957.56
2023-03-16T09:12:38.051Z,99962.53
2023-03-16T09:15:05.618Z,99958.06
2023-03-16T09:17:32.177Z,99953.25
2023-03-16T09:20:05.531Z,99965.53
2023-03-16T09:22:42.804Z,99950.47
2023-03-16T09:25:11.716Z,99936.19
2023-03-16T09:27:38.576Z,99904.41
2023-03-16T09:30:08.108Z,99899.38
2023-03-16T09:32:37.478Z,99922.09
2023-03-16T09:35:06.315Z,99927.94
2023-03-16T09:37:45.099Z,99905.59
2023-03-16T09:43:19.514Z,99938.28
2023-03-16T09:46:29.156Z,99927.91
2023-03-16T09:49:01.784Z,99908.59
2023-03-16T09:52:13.868Z,99937.03
2023-03-16T09:54:48.027Z,99906.97
2023-03-16T09:57:27.974Z,99903.78
2023-03-16T10:00:08.282Z,99918.16
2023-03-16T10:03:02.230Z,99910.91
2023-03-16T10:05:29.162Z,99922.56
2023-03-16T10:08:04.815Z,99922.16
2023-03-16T10:10:41.196Z,99929.44
2023-03-16T10:13:28.299Z,99898.78
2023-03-16T10:15:56.937Z,99883.91
2023-03-16T10:18:39.304Z,99888.31
2023-03-16T10:21:11.456Z,99899.22
2023-03-16T10:23:40.271Z,99887.56
2023-03-16T10:26:13.741Z,99885.53
2023-03-16T10:28:40.788Z,99879.78
2023-03-16T10:31:08.326Z,99880.75
2023-03-16T10:33:45.775Z,99886.38
2023-03-16T10:36:27.620Z,99887.72
2023-03-16T10:39:20.909Z,99900.75
2023-03-16T10:41:58.761Z,99888.44
2023-03-16T13:52:36.442Z,99702.09
2023-03-16T13:55:12.037Z,99688.81
2023-03-16T13:57:42.086Z,99688.63
2023-03-16T14:00:24.731Z,99689.84
2023-03-16T14:02:56.331Z,99689.53
2023-03-16T14:05:32.145Z,99700.56
2023-03-16T14:08:00.834Z,99690.84
